createdAt,value
2019-05-26T00:00:40.670Z,75.10
2019-05-26T00:03:08.941Z,75.00
2019-05-26T00:05:37.163Z,75.10
2019-05-26T00:08:05.382Z,75.10
2019-05-26T00:10:34.702Z,75.10
2019-05-26T00:13:03.926Z,75.20
2019-05-26T00:15:32.278Z,75.00
2019-05-26T00:18:00.524Z,75.50
2019-05-26T00:20:28.754Z,75.80
2019-05-26T00:22:57.810Z,76.90
2019-05-26T00:25:26.158Z,76.90
2019-05-26T00:27:54.396Z,77.30
2019-05-26T00:30:22.693Z,76.50
2019-05-26T00:32:52.801Z,75.80
2019-05-26T00:35:21.001Z,76.60
2019-05-26T00:37:50.657Z,77.70
2019-05-26T00:40:20.378Z,78.50
2019-05-26T00:42:49.498Z,78.00
2019-05-26T00:45:17.770Z,77.40
2019-05-26T00:47:46.015Z,77.50
2019-05-26T00:50:14.629Z,76.70
2019-05-26T00:52:42.842Z,76.70
2019-05-26T00:55:11.056Z,77.10
2019-05-26T00:57:39.295Z,77.70
2019-05-26T01:00:08.881Z,78.00
2019-05-26T01:02:37.100Z,78.40
2019-05-26T01:05:08.022Z,78.50
2019-05-26T01:07:37.260Z,78.90
2019-05-26T01:10:09.691Z,79.30
2019-05-26T01:12:37.935Z,79.80
2019-05-26T01:15:07.681Z,80.00
2019-05-26T01:17:35.897Z,79.50
2019-05-26T01:20:05.167Z,79.30
2019-05-26T01:22:33.380Z,79.70
2019-05-26T01:25:01.605Z,78.40
2019-05-26T01:27:29.831Z,78.40
2019-05-26T01:29:58.430Z,78.60
2019-05-26T01:32:26.642Z,78.60
2019-05-26T01:34:56.357Z,78.70
2019-05-26T01:37:24.601Z,78.60
2019-05-26T01:39:53.319Z,78.60
2019-05-26T01:42:21.658Z,78.50
2019-05-26T01:44:49.897Z,78.90
2019-05-26T01:47:18.130Z,79.00
2019-05-26T01:49:46.325Z,78.80
2019-05-26T01:52:14.697Z,78.60
2019-05-26T01:54:42.930Z,78.80
2019-05-26T01:57:11.143Z,79.10
2019-05-26T01:59:39.365Z,79.30
2019-05-26T02:02:08.804Z,79.40
2019-05-26T02:04:37.050Z,79.60
2019-05-26T02:07:05.258Z,79.60
2019-05-26T02:09:33.471Z,79.40
2019-05-26T02:12:01.711Z,79.60
2019-05-26T02:14:30.265Z,79.70
2019-05-26T02:16:59.007Z,79.60
2019-05-26T02:19:27.224Z,79.90
2019-05-26T02:21:55.442Z,79.70
2019-05-26T02:24:23.675Z,79.40
2019-05-26T02:26:52.065Z,79.40
2019-05-26T02:29:20.624Z,79.50
2019-05-26T02:31:48.859Z,79.60
2019-05-26T02:34:17.077Z,79.50
2019-05-26T02:36:45.320Z,79.70
2019-05-26T02:39:13.587Z,79.60
2019-05-26T02:41:41.813Z,80.20
2019-05-26T02:44:10.050Z,80.10
2019-05-26T02:46:38.274Z,80.00
2019-05-26T02:49:07.499Z,79.90
2019-05-26T02:51:36.541Z,79.60
2019-05-26T02:54:05.232Z,79.40
2019-05-26T02:56:33.504Z,78.90
2019-05-26T02:59:01.964Z,79.00
2019-05-26T03:01:30.272Z,79.10
2019-05-26T03:03:58.559Z,79.10
2019-05-26T03:06:27.828Z,78.90
2019-05-26T03:08:56.677Z,78.80
2019-05-26T03:11:26.075Z,78.70
2019-05-26T03:13:54.264Z,78.60
2019-05-26T03:16:22.493Z,78.70
2019-05-26T03:18:53.143Z,78.80
2019-05-26T03:21:22.204Z,79.40
2019-05-26T03:23:51.223Z,79.40
2019-05-26T03:26:20.174Z,79.10
2019-05-26T03:28:48.393Z,79.30
2019-05-26T03:31:16.630Z,79.40
2019-05-26T03:33:44.943Z,79.30
2019-05-26T03:36:13.661Z,79.20
2019-05-26T03:38:41.875Z,79.10
2019-05-26T03:41:10.105Z,79.00
2019-05-26T03:43:38.322Z,79.10
2019-05-26T03:46:17.222Z,79.40
2019-05-26T03:48:45.605Z,79.30
2019-05-26T03:51:14.219Z,79.00
2019-05-26T03:53:43.455Z,79.30
2019-05-26T03:56:12.831Z,79.00
2019-05-26T03:58:41.026Z,79.20
2019-05-26T04:01:09.245Z,79.20
2019-05-26T04:03:38.275Z,79.50
2019-05-26T04:06:06.486Z,79.60
2019-05-26T04:08:35.636Z,79.50
2019-05-26T04:11:03.884Z,79.70
2019-05-26T04:13:32.097Z,79.90
2019-05-26T04:16:00.527Z,79.70
2019-05-26T04:18:28.752Z,79.50
2019-05-26T04:20:56.992Z,79.60
2019-05-26T04:23:25.304Z,79.80
2019-05-26T04:25:53.615Z,79.90
2019-05-26T04:28:22.056Z,80.10
2019-05-26T04:30:51.138Z,80.40
2019-05-26T04:33:19.395Z,80.50
2019-05-26T04:35:47.766Z,80.40
2019-05-26T04:38:16.356Z,80.30
2019-05-26T04:40:44.630Z,80.20
2019-05-26T04:43:14.879Z,80.30
2019-05-26T04:45:42.980Z,80.40
2019-05-26T04:48:11.175Z,80.50
2019-05-26T04:50:39.399Z,80.70
2019-05-26T04:53:07.918Z,80.40
2019-05-26T04:55:36.378Z,80.60
2019-05-26T04:58:05.831Z,80.70
2019-05-26T05:00:34.078Z,80.90
2019-05-26T05:03:02.277Z,80.80
2019-05-26T05:05:30.494Z,81.10
2019-05-26T05:07:58.738Z,81.10
2019-05-26T05:10:41.409Z,81.10
2019-05-26T05:12:58.436Z,81.00
2019-05-26T05:15:26.791Z,80.90
2019-05-26T05:17:55.616Z,80.70
2019-05-26T05:20:24.192Z,81.10
2019-05-26T05:22:52.593Z,81.20
2019-05-26T05:25:22.808Z,80.80
2019-05-26T05:27:51.533Z,80.80
2019-05-26T05:30:20.156Z,80.80
2019-05-26T05:32:48.473Z,80.90
2019-05-26T05:35:17.752Z,80.90
2019-05-26T05:37:45.995Z,80.80
2019-05-26T05:40:14.255Z,81.20
2019-05-26T05:42:42.462Z,81.00
2019-05-26T05:45:11.958Z,80.90
2019-05-26T05:47:40.355Z,80.90
2019-05-26T05:50:12.565Z,80.50
2019-05-26T05:52:40.859Z,80.70
2019-05-26T05:55:10.409Z,80.70
2019-05-26T05:57:38.650Z,80.40
2019-05-26T06:00:07.398Z,80.70
2019-05-26T06:02:36.135Z,80.70
2019-05-26T06:05:07.323Z,80.70
2019-05-26T06:07:35.528Z,80.10
2019-05-26T06:10:08.704Z,80.00
2019-05-26T06:12:37.070Z,79.20
2019-05-26T06:15:12.204Z,78.90
2019-05-26T06:17:41.116Z,78.70
2019-05-26T06:20:09.350Z,78.70
2019-05-26T06:22:37.695Z,78.80
2019-05-26T06:25:06.707Z,78.30
2019-05-26T06:27:36.483Z,78.30
2019-05-26T06:30:07.652Z,78.50
2019-05-26T06:32:35.870Z,78.50
2019-05-26T06:35:04.724Z,78.40
2019-05-26T06:37:32.982Z,78.50
2019-05-26T06:40:01.206Z,78.40
2019-05-26T06:42:29.406Z,79.10
2019-05-26T06:44:57.633Z,80.20
2019-05-26T06:47:25.843Z,79.80
2019-05-26T06:49:55.319Z,79.60
2019-05-26T06:52:23.563Z,79.20
2019-05-26T06:54:52.255Z,80.60
2019-05-26T06:57:20.484Z,80.60
2019-05-26T06:59:48.691Z,80.60
2019-05-26T07:02:17.306Z,79.20
2019-05-26T07:04:45.627Z,78.80
2019-05-26T07:07:13.851Z,79.00
2019-05-26T07:09:42.499Z,79.00
2019-05-26T07:12:10.724Z,78.50
2019-05-26T07:14:39.059Z,78.70
2019-05-26T07:17:07.268Z,78.90
2019-05-26T07:19:35.567Z,78.70
2019-05-26T07:22:03.823Z,78.40
2019-05-26T07:24:32.045Z,78.70
2019-05-26T07:27:00.320Z,78.20
2019-05-26T07:29:28.559Z,79.00
2019-05-26T07:31:56.790Z,78.40
2019-05-26T07:34:25.261Z,78.90
2019-05-26T07:36:53.570Z,78.10
2019-05-26T07:39:21.800Z,77.80
2019-05-26T07:42:08.555Z,77.80
2019-05-26T07:44:21.088Z,77.90
2019-05-26T07:46:49.338Z,78.00
2019-05-26T07:49:17.639Z,77.90
2019-05-26T07:51:45.884Z,77.40
2019-05-26T07:54:25.233Z,77.70
2019-05-26T07:56:45.128Z,77.80
2019-05-26T07:59:13.442Z,78.30
2019-05-26T08:01:41.697Z,78.00
2019-05-26T08:04:09.947Z,77.40
2019-05-26T08:06:38.369Z,78.10
2019-05-26T08:09:09.428Z,77.80
2019-05-26T08:11:37.827Z,77.60
2019-05-26T08:14:06.024Z,76.60
2019-05-26T08:16:34.250Z,76.30
2019-05-26T08:19:02.554Z,76.30
2019-05-26T08:21:32.139Z,77.00
2019-05-26T08:24:00.359Z,77.10
2019-05-26T08:26:29.861Z,77.20
2019-05-26T08:28:58.180Z,76.80
2019-05-26T08:31:26.410Z,76.40
2019-05-26T08:33:55.768Z,75.70
2019-05-26T08:36:23.990Z,75.00
2019-05-26T08:38:52.300Z,75.40
2019-05-26T08:41:20.513Z,75.30
2019-05-26T08:43:48.997Z,75.40
2019-05-26T08:46:18.033Z,75.20
2019-05-26T08:48:46.941Z,76.00
2019-05-26T08:51:15.193Z,76.00
2019-05-26T08:53:43.472Z,76.10
2019-05-26T08:56:11.783Z,77.20
2019-05-26T08:58:40.349Z,76.40
2019-05-26T09:01:08.572Z,76.70
2019-05-26T09:03:36.803Z,76.50
2019-05-26T09:06:05.027Z,76.90
2019-05-26T09:08:33.586Z,76.40
2019-05-26T09:11:02.242Z,76.90
2019-05-26T09:13:30.527Z,76.50
2019-05-26T09:15:59.724Z,76.70
2019-05-26T09:18:28.304Z,76.90
2019-05-26T09:20:56.767Z,77.90
2019-05-26T09:23:25.026Z,78.00
2019-05-26T09:25:53.409Z,77.20
2019-05-26T09:28:21.651Z,78.00
2019-05-26T09:30:49.903Z,77.80
2019-05-26T09:33:19.308Z,78.50
2019-05-26T09:35:47.538Z,78.00
2019-05-26T09:38:16.180Z,78.10
2019-05-26T09:40:44.667Z,78.40
2019-05-26T09:43:16.522Z,78.10
2019-05-26T09:45:44.042Z,78.30
2019-05-26T09:48:13.074Z,78.50
2019-05-26T09:50:42.567Z,78.40
2019-05-26T09:53:10.786Z,78.40
2019-05-26T09:55:39.031Z,78.20
2019-05-26T09:58:07.254Z,78.20
2019-05-26T10:00:36.535Z,78.00
2019-05-26T10:03:04.926Z,77.90
2019-05-26T10:05:33.947Z,78.50
2019-05-26T10:08:02.243Z,78.30
2019-05-26T10:10:30.482Z,78.60
2019-05-26T10:12:58.698Z,78.90
2019-05-26T10:15:26.954Z,79.30
2019-05-26T10:17:55.163Z,80.10
2019-05-26T10:20:24.431Z,80.80
2019-05-26T10:22:52.654Z,81.70
2019-05-26T10:25:21.452Z,82.90
2019-05-26T10:27:49.713Z,84.10
2019-05-26T10:30:17.966Z,85.10
2019-05-26T10:32:46.583Z,85.80
2019-05-26T10:35:15.931Z,85.80
2019-05-26T10:37:44.175Z,86.70
2019-05-26T10:40:12.428Z,86.00
2019-05-26T10:42:40.674Z,86.40
2019-05-26T10:45:10.058Z,85.60
2019-05-26T10:47:38.293Z,85.60
2019-05-26T10:50:10.319Z,85.80
2019-05-26T10:52:38.596Z,85.10
2019-05-26T10:55:09.771Z,85.40
2019-05-26T10:57:38.146Z,85.10
2019-05-26T11:00:07.977Z,84.90
2019-05-26T11:02:36.559Z,85.10
2019-05-26T11:05:07.803Z,85.70
2019-05-26T11:07:36.082Z,86.60
2019-05-26T11:10:06.252Z,86.60
2019-05-26T11:12:34.635Z,87.20
2019-05-26T11:15:03.139Z,87.50
2019-05-26T11:17:31.354Z,88.60
2019-05-26T11:19:59.590Z,89.00
2019-05-26T11:22:27.864Z,89.20
2019-05-26T11:24:56.123Z,90.20
2019-05-26T11:27:25.251Z,90.40
2019-05-26T11:29:53.483Z,90.40
2019-05-26T11:32:22.004Z,90.20
2019-05-26T11:35:01.312Z,90.30
2019-05-26T11:37:21.445Z,90.20
2019-05-26T11:39:49.652Z,90.60
2019-05-26T11:42:19.006Z,90.50
2019-05-26T11:44:47.289Z,90.20
2019-05-26T11:47:16.180Z,89.70
2019-05-26T11:49:44.421Z,89.10
2019-05-26T11:52:12.766Z,89.40
2019-05-26T11:54:41.056Z,89.00
2019-05-26T11:57:09.661Z,89.50
2019-05-26T11:59:38.678Z,89.80
2019-05-26T12:02:07.556Z,87.60
2019-05-26T12:04:35.788Z,86.50
2019-05-26T12:07:04.671Z,87.10
2019-05-26T12:09:33.498Z,85.00
2019-05-26T12:12:01.693Z,85.00
2019-05-26T12:14:34.966Z,85.00
2019-05-26T12:16:59.851Z,83.70
2019-05-26T12:19:28.956Z,83.70
2019-05-26T12:21:57.188Z,83.20
2019-05-26T12:24:25.461Z,83.30
2019-05-26T12:26:53.742Z,83.40
2019-05-26T12:29:23.359Z,83.90
2019-05-26T12:31:51.709Z,83.10
2019-05-26T12:34:19.985Z,83.40
2019-05-26T12:36:48.290Z,82.70
2019-05-26T12:39:16.585Z,82.00
2019-05-26T12:41:44.961Z,82.20
2019-05-26T12:44:13.267Z,82.60
2019-05-26T12:46:42.579Z,83.30
2019-05-26T12:49:10.794Z,82.20
2019-05-26T12:51:39.044Z,82.70
2019-05-26T12:54:07.276Z,81.50
2019-05-26T12:56:36.772Z,81.40
2019-05-26T12:59:05.161Z,81.50
2019-05-26T13:01:33.398Z,80.90
2019-05-26T13:04:01.612Z,80.50
2019-05-26T13:06:30.432Z,80.40
2019-05-26T13:08:58.739Z,79.80
2019-05-26T13:11:28.391Z,79.80
2019-05-26T13:13:56.710Z,81.40
2019-05-26T13:16:24.939Z,78.60
2019-05-26T13:18:53.169Z,79.00
2019-05-26T13:21:22.513Z,79.30
2019-05-26T13:23:50.739Z,79.20
2019-05-26T13:26:18.954Z,78.30
2019-05-26T13:28:47.198Z,77.70
2019-05-26T13:31:16.301Z,77.40
2019-05-26T13:33:44.710Z,77.50
2019-05-26T13:36:12.923Z,77.80
2019-05-26T13:38:41.170Z,77.70
2019-05-26T13:41:09.405Z,77.20
2019-05-26T13:43:37.623Z,76.60
2019-05-26T13:46:05.860Z,76.80
2019-05-26T13:48:34.273Z,77.10
2019-05-26T13:51:02.578Z,76.60
2019-05-26T13:53:30.870Z,76.00
2019-05-26T13:55:59.087Z,75.70
2019-05-26T13:58:27.347Z,76.30
2019-05-26T14:00:55.607Z,75.20
2019-05-26T14:03:24.387Z,75.30
2019-05-26T14:05:53.850Z,76.40
2019-05-26T14:08:22.197Z,76.00
2019-05-26T14:10:50.471Z,76.00
2019-05-26T14:13:19.508Z,74.30
2019-05-26T14:15:48.221Z,73.40
2019-05-26T14:18:18.237Z,73.70
2019-05-26T14:20:46.376Z,73.40
2019-05-26T14:23:14.601Z,73.60
2019-05-26T14:25:43.463Z,73.50
2019-05-26T14:28:11.687Z,73.00
2019-05-26T14:30:39.919Z,73.40
2019-05-26T14:33:08.659Z,73.60
2019-05-26T14:35:36.897Z,73.70
2019-05-26T14:38:05.100Z,73.10
2019-05-26T14:40:33.649Z,73.20
2019-05-26T14:43:02.354Z,73.80
2019-05-26T14:45:30.694Z,73.40
2019-05-26T14:48:00.056Z,73.20
2019-05-26T14:50:28.351Z,72.60
2019-05-26T14:52:57.590Z,72.40
2019-05-26T14:55:27.481Z,72.70
2019-05-26T14:57:55.790Z,73.50
2019-05-26T15:00:25.890Z,73.20
2019-05-26T15:02:55.128Z,73.10
2019-05-26T15:05:23.415Z,73.80
2019-05-26T15:07:51.866Z,72.70
2019-05-26T15:10:22.759Z,72.90
2019-05-26T15:12:51.982Z,72.00
2019-05-26T15:15:20.232Z,72.70
2019-05-26T15:17:48.451Z,72.40
2019-05-26T15:20:16.792Z,72.70
2019-05-26T15:22:45.035Z,72.00
2019-05-26T15:25:13.317Z,72.00
2019-05-26T15:27:41.749Z,72.30
2019-05-26T15:30:10.593Z,72.00
2019-05-26T15:32:40.070Z,72.60
2019-05-26T15:35:09.564Z,72.70
2019-05-26T15:37:37.790Z,72.60
2019-05-26T15:40:09.716Z,72.70
2019-05-26T15:42:37.952Z,73.00
2019-05-26T15:45:06.970Z,72.90
2019-05-26T15:47:35.337Z,73.10
2019-05-26T15:50:05.132Z,72.80
2019-05-26T15:52:33.872Z,72.70
2019-05-26T15:55:02.339Z,72.50
2019-05-26T15:57:30.563Z,72.70
2019-05-26T15:59:58.859Z,73.00
2019-05-26T16:02:27.177Z,72.70
2019-05-26T16:04:58.830Z,72.90
2019-05-26T16:07:26.254Z,73.00
2019-05-26T16:09:54.502Z,73.00
2019-05-26T16:12:23.779Z,73.60
2019-05-26T16:14:52.093Z,72.30
2019-05-26T16:17:21.409Z,72.50
2019-05-26T16:19:49.636Z,73.00
2019-05-26T16:22:17.905Z,72.80
2019-05-26T16:24:46.346Z,72.60
2019-05-26T16:27:19.425Z,73.00
2019-05-26T16:29:46.708Z,72.30
2019-05-26T16:32:18.641Z,72.40
2019-05-26T16:34:45.112Z,71.80
2019-05-26T16:37:13.411Z,71.60
2019-05-26T16:39:41.623Z,71.50
2019-05-26T16:42:09.962Z,71.40
2019-05-26T16:44:38.310Z,71.10
2019-05-26T16:47:06.563Z,71.30
2019-05-26T16:49:34.915Z,71.50
2019-05-26T16:52:03.242Z,71.30
2019-05-26T16:54:31.663Z,70.90
2019-05-26T16:56:59.880Z,71.20
2019-05-26T16:59:28.519Z,71.40
2019-05-26T17:01:56.780Z,71.50
2019-05-26T17:04:25.187Z,71.80
2019-05-26T17:06:53.387Z,72.70
2019-05-26T17:09:22.020Z,73.10
2019-05-26T17:11:50.622Z,74.40
2019-05-26T17:14:18.898Z,75.20
2019-05-26T17:16:47.144Z,76.40
2019-05-26T17:19:15.493Z,77.00
2019-05-26T17:21:43.824Z,77.30
2019-05-26T17:24:12.184Z,77.60
2019-05-26T17:26:40.622Z,78.60
2019-05-26T17:29:09.918Z,78.50
2019-05-26T17:31:39.259Z,79.20
2019-05-26T17:34:07.482Z,80.10
2019-05-26T17:36:36.723Z,80.30
2019-05-26T17:39:07.894Z,81.30
2019-05-26T17:41:37.651Z,81.60
2019-05-26T17:44:06.267Z,81.70
2019-05-26T17:46:34.555Z,82.10
2019-05-26T17:49:02.835Z,83.40
2019-05-26T17:51:31.362Z,83.80
2019-05-26T17:53:59.635Z,84.00
2019-05-26T17:56:27.983Z,84.10
2019-05-26T17:58:56.213Z,85.00
2019-05-26T18:01:24.451Z,85.30
2019-05-26T18:03:52.881Z,85.70
2019-05-26T18:06:21.359Z,86.20
2019-05-26T18:08:49.614Z,86.60
2019-05-26T18:11:17.884Z,87.40
2019-05-26T18:13:46.785Z,88.30
2019-05-26T18:16:15.158Z,88.90
2019-05-26T18:18:44.276Z,89.70
2019-05-26T18:21:12.575Z,89.90
2019-05-26T18:23:41.828Z,89.80
2019-05-26T18:26:10.039Z,90.20
2019-05-26T18:28:38.451Z,90.30
2019-05-26T18:31:06.765Z,90.20
2019-05-26T18:33:36.942Z,90.60
2019-05-26T18:36:05.302Z,90.50
2019-05-26T18:38:33.554Z,90.80
2019-05-26T18:41:01.769Z,90.80
2019-05-26T18:43:30.154Z,90.90
2019-05-26T18:45:58.376Z,91.00
2019-05-26T18:48:27.750Z,91.00
2019-05-26T18:50:56.193Z,90.70
2019-05-26T18:53:25.167Z,90.70
2019-05-26T18:55:54.692Z,90.80
2019-05-26T18:58:23.009Z,90.70
2019-05-26T19:00:51.368Z,90.90
2019-05-26T19:03:20.002Z,90.90
2019-05-26T19:05:48.603Z,91.20
2019-05-26T19:08:16.829Z,91.00
2019-05-26T19:10:46.093Z,91.00
2019-05-26T19:13:14.326Z,91.10
2019-05-26T19:15:42.665Z,91.00
2019-05-26T19:18:20.076Z,90.90
2019-05-26T19:20:41.129Z,91.00
2019-05-26T19:23:09.449Z,91.00
2019-05-26T19:25:37.792Z,90.90
2019-05-26T19:28:06.122Z,90.90
2019-05-26T19:30:34.355Z,90.90
2019-05-26T19:33:02.571Z,91.00
2019-05-26T19:35:30.795Z,91.10
2019-05-26T19:37:59.007Z,91.10
2019-05-26T19:40:28.486Z,91.00
2019-05-26T19:42:56.796Z,91.10
2019-05-26T19:45:25.201Z,91.20
2019-05-26T19:47:55.527Z,91.20
2019-05-26T19:50:23.745Z,91.30
2019-05-26T19:52:52.104Z,91.30
2019-05-26T19:55:20.510Z,91.30
2019-05-26T19:57:51.223Z,91.40
2019-05-26T20:00:19.692Z,91.50
2019-05-26T20:02:47.954Z,91.50
2019-05-26T20:05:16.935Z,91.50
2019-05-26T20:07:45.248Z,91.60
2019-05-26T20:10:14.591Z,92.00
2019-05-26T20:12:42.830Z,91.70
2019-05-26T20:15:11.075Z,91.60
2019-05-26T20:17:39.330Z,91.60
2019-05-26T20:20:08.424Z,91.70
2019-05-26T20:22:38.226Z,91.80
2019-05-26T20:25:08.199Z,91.90
2019-05-26T20:27:37.401Z,91.80
2019-05-26T20:30:07.277Z,91.90
2019-05-26T20:32:35.506Z,92.20
2019-05-26T20:35:05.993Z,92.00
2019-05-26T20:37:34.798Z,92.20
2019-05-26T20:40:04.350Z,92.30
2019-05-26T20:42:33.532Z,92.40
2019-05-26T20:45:01.899Z,92.20
2019-05-26T20:47:30.206Z,92.40
2019-05-26T20:49:59.409Z,92.40
2019-05-26T20:52:27.876Z,92.30
2019-05-26T20:54:56.362Z,92.40
2019-05-26T20:57:24.574Z,92.40
2019-05-26T20:59:52.818Z,92.30
2019-05-26T21:02:21.048Z,92.30
2019-05-26T21:04:50.293Z,92.40
2019-05-26T21:07:18.522Z,92.30
2019-05-26T21:09:46.805Z,92.40
2019-05-26T21:12:16.177Z,92.30
2019-05-26T21:14:44.617Z,92.30
2019-05-26T21:17:13.438Z,92.30
2019-05-26T21:19:41.658Z,92.30
2019-05-26T21:22:09.889Z,92.50
2019-05-26T21:24:38.226Z,92.40
2019-05-26T21:27:06.566Z,92.50
2019-05-26T21:29:34.954Z,92.50
2019-05-26T21:32:04.206Z,92.30
2019-05-26T21:34:32.549Z,92.30
2019-05-26T21:37:01.143Z,92.30
2019-05-26T21:39:29.555Z,92.20
2019-05-26T21:41:58.330Z,92.10
2019-05-26T21:44:27.593Z,92.00
2019-05-26T21:46:55.829Z,91.80
2019-05-26T21:49:24.359Z,92.10
2019-05-26T21:51:52.627Z,92.10
2019-05-26T21:54:21.942Z,92.20
2019-05-26T21:56:50.166Z,92.20
2019-05-26T21:59:18.383Z,92.20
2019-05-26T22:01:46.627Z,92.30
2019-05-26T22:04:16.063Z,92.70
2019-05-26T22:06:44.289Z,92.60
2019-05-26T22:09:12.523Z,92.60
2019-05-26T22:11:42.070Z,92.50
2019-05-26T22:14:10.295Z,92.60
2019-05-26T22:16:38.694Z,92.60
2019-05-26T22:19:07.076Z,92.50
2019-05-26T22:21:35.286Z,92.70
2019-05-26T22:24:03.599Z,92.70
2019-05-26T22:26:31.856Z,92.80
2019-05-26T22:29:00.095Z,92.70
2019-05-26T22:31:29.167Z,92.50
2019-05-26T22:33:57.538Z,92.40
2019-05-26T22:36:26.688Z,92.30
2019-05-26T22:38:56.014Z,92.30
2019-05-26T22:41:24.249Z,92.20
2019-05-26T22:43:52.459Z,92.10
2019-05-26T22:46:20.697Z,92.10
2019-05-26T22:48:48.910Z,92.30
2019-05-26T22:51:17.155Z,92.00
2019-05-26T22:53:45.362Z,92.40
2019-05-26T22:56:14.078Z,92.10
2019-05-26T22:58:42.391Z,92.00
2019-05-26T23:01:10.969Z,92.10
2019-05-26T23:03:39.218Z,92.10
2019-05-26T23:06:07.450Z,92.10
2019-05-26T23:08:35.658Z,92.10
2019-05-26T23:11:04.139Z,92.10
2019-05-26T23:13:32.350Z,92.10
2019-05-26T23:16:00.886Z,92.10
2019-05-26T23:18:29.118Z,92.20
2019-05-26T23:20:58.330Z,92.20
2019-05-26T23:23:26.559Z,92.40
2019-05-26T23:25:55.139Z,92.40
2019-05-26T23:28:23.356Z,92.20
2019-05-26T23:30:52.675Z,92.30
2019-05-26T23:33:21.664Z,92.20
2019-05-26T23:35:51.893Z,92.30
2019-05-26T23:38:20.098Z,92.20
2019-05-26T23:40:48.321Z,92.20
2019-05-26T23:43:16.537Z,92.20
2019-05-26T23:45:45.884Z,92.10
2019-05-26T23:48:14.955Z,92.20
2019-05-26T23:50:43.472Z,92.30
2019-05-26T23:53:11.683Z,92.00
2019-05-26T23:55:39.983Z,92.30
2019-05-26T23:58:08.267Z,92.30
